createdAt,value
2023-05-21T00:00:51.778Z,6.65
2023-05-21T00:03:18.631Z,7.33
2023-05-21T00:05:47.223Z,6.80
2023-05-21T00:08:14.442Z,7.00
2023-05-21T00:10:41.010Z,7.75
2023-05-21T00:13:09.123Z,7.55
2023-05-21T00:15:36.115Z,7.43
2023-05-21T00:18:03.667Z,6.70
2023-05-21T00:20:32.445Z,7.82
2023-05-21T00:22:59.990Z,7.50
2023-05-21T00:25:26.542Z,6.90
2023-05-21T00:27:54.440Z,6.73
2023-05-21T00:30:21.089Z,7.47
2023-05-21T00:32:47.987Z,7.65
2023-05-21T00:35:14.990Z,7.90
2023-05-21T00:37:41.624Z,8.63
2023-05-21T00:40:09.330Z,7.80
2023-05-21T00:42:40.120Z,7.95
2023-05-21T00:45:08.269Z,7.72
2023-05-21T00:47:35.853Z,7.97
2023-05-21T00:50:04.022Z,7.68
2023-05-21T00:52:31.055Z,7.40
2023-05-21T00:54:57.835Z,8.45
2023-05-21T00:57:27.311Z,8.45
2023-05-21T00:59:54.567Z,8.30
2023-05-21T01:02:24.207Z,8.15
2023-05-21T01:04:54.762Z,7.67
2023-05-21T01:07:22.032Z,8.65
2023-05-21T01:09:48.779Z,8.68
2023-05-21T01:12:18.139Z,7.57
2023-05-21T01:14:45.368Z,8.20
2023-05-21T01:17:13.079Z,8.13
2023-05-21T01:19:39.918Z,8.23
2023-05-21T01:22:08.111Z,8.77
2023-05-21T01:24:35.221Z,8.98
2023-05-21T01:27:03.424Z,8.60
2023-05-21T01:29:30.001Z,10.03
2023-05-21T01:32:23.448Z,9.23
2023-05-21T01:35:02.510Z,9.73
2023-05-21T01:37:41.427Z,10.13
2023-05-21T01:40:16.605Z,8.70
2023-05-21T01:42:44.861Z,10.53
2023-05-21T01:45:14.742Z,9.07
2023-05-21T01:47:44.943Z,10.30
2023-05-21T01:50:12.357Z,9.90
2023-05-21T01:52:38.990Z,10.27
2023-05-21T01:55:07.551Z,9.93
2023-05-21T01:57:34.069Z,8.88
2023-05-21T02:00:01.452Z,10.38
2023-05-21T02:02:28.306Z,10.65
2023-05-21T02:04:54.893Z,9.57
2023-05-21T02:07:22.684Z,9.77
2023-05-21T02:09:49.369Z,9.02
2023-05-21T02:12:15.926Z,9.65
2023-05-21T02:14:42.573Z,10.65
2023-05-21T02:17:09.178Z,10.50
2023-05-21T02:19:36.093Z,10.43
2023-05-21T02:22:02.786Z,11.20
2023-05-21T02:24:29.410Z,10.98
2023-05-21T02:26:56.346Z,10.52
2023-05-21T02:29:22.848Z,12.07
2023-05-21T02:31:50.963Z,12.53
2023-05-21T02:34:20.725Z,11.68
2023-05-21T02:36:52.454Z,11.77
2023-05-21T02:39:19.663Z,12.15
2023-05-21T02:41:47.054Z,12.20
2023-05-21T02:44:14.268Z,12.03
2023-05-21T02:46:41.074Z,11.88
2023-05-21T02:49:07.640Z,11.65
2023-05-21T02:51:34.180Z,11.43
2023-05-21T02:54:00.720Z,11.52
2023-05-21T02:56:27.249Z,11.83
2023-05-21T02:58:54.599Z,11.50
2023-05-21T03:01:21.215Z,11.93
2023-05-21T03:03:47.946Z,11.38
2023-05-21T03:06:16.328Z,12.93
2023-05-21T03:08:43.183Z,11.67
2023-05-21T03:11:10.045Z,12.57
2023-05-21T03:13:36.599Z,11.98
2023-05-21T03:16:03.197Z,13.43
2023-05-21T03:18:29.694Z,13.18
2023-05-21T03:20:59.068Z,13.30
2023-05-21T03:23:26.989Z,12.90
2023-05-21T03:25:53.527Z,13.32
2023-05-21T03:28:20.144Z,13.15
2023-05-21T03:30:49.892Z,12.63
2023-05-21T03:33:16.673Z,12.30
2023-05-21T03:35:43.221Z,12.43
2023-05-21T03:38:09.754Z,12.43
2023-05-21T03:40:36.567Z,13.27
2023-05-21T03:43:03.212Z,14.65
2023-05-21T03:45:29.752Z,13.30
2023-05-21T03:47:56.554Z,13.32
2023-05-21T03:50:23.191Z,15.30
2023-05-21T03:52:49.944Z,14.68
2023-05-21T03:55:16.520Z,15.45
2023-05-21T03:57:43.160Z,13.50
2023-05-21T04:00:10.259Z,14.95
2023-05-21T04:02:36.857Z,15.93
2023-05-21T04:05:03.572Z,15.25
2023-05-21T04:07:30.226Z,14.65
2023-05-21T04:09:56.807Z,14.77
2023-05-21T04:12:23.632Z,15.13
2023-05-21T04:14:50.296Z,13.57
2023-05-21T04:17:17.146Z,13.48
2023-05-21T04:19:43.775Z,14.13
2023-05-21T04:22:11.156Z,12.43
2023-05-21T04:24:38.253Z,12.30
2023-05-21T04:27:06.027Z,12.25
2023-05-21T04:29:32.625Z,12.07
2023-05-21T04:31:59.362Z,11.82
2023-05-21T04:34:25.901Z,11.77
2023-05-21T04:36:52.509Z,12.27
2023-05-21T04:39:19.078Z,11.88
2023-05-21T04:41:45.648Z,10.88
2023-05-21T04:44:15.013Z,11.32
2023-05-21T04:46:42.174Z,10.73
2023-05-21T04:49:10.249Z,10.40
2023-05-21T04:51:37.960Z,10.57
2023-05-21T04:54:04.819Z,10.30
2023-05-21T04:56:32.013Z,9.73
2023-05-21T04:58:59.061Z,8.47
2023-05-21T05:01:27.269Z,8.82
2023-05-21T05:03:54.350Z,9.55
2023-05-21T05:06:21.543Z,8.80
2023-05-21T05:08:48.799Z,9.35
2023-05-21T05:11:15.443Z,8.97
2023-05-21T05:13:42.353Z,8.32
2023-05-21T05:16:09.337Z,9.32
2023-05-21T05:18:36.618Z,8.27
2023-05-21T05:21:03.242Z,8.90
2023-05-21T05:23:29.835Z,8.80
2023-05-21T05:25:56.477Z,8.75
2023-05-21T05:28:23.404Z,8.82
2023-05-21T05:30:50.325Z,8.30
2023-05-21T05:33:16.951Z,9.10
2023-05-21T05:35:43.503Z,8.20
2023-05-21T05:38:10.518Z,8.55
2023-05-21T05:40:37.157Z,8.20
2023-05-21T05:43:03.820Z,8.73
2023-05-21T05:45:30.568Z,8.43
2023-05-21T05:47:57.642Z,8.20
2023-05-21T05:50:24.230Z,7.47
2023-05-21T05:52:51.416Z,7.53
2023-05-21T05:55:18.056Z,7.95
2023-05-21T05:57:45.186Z,7.38
2023-05-21T06:00:12.656Z,7.60
2023-05-21T06:02:39.479Z,7.30
2023-05-21T06:05:10.093Z,7.13
2023-05-21T06:07:40.101Z,7.35
2023-05-21T06:10:07.907Z,7.22
2023-05-21T06:12:35.440Z,7.10
2023-05-21T06:15:02.016Z,6.68
2023-05-21T06:17:28.822Z,7.57
2023-05-21T06:19:55.484Z,5.80
2023-05-21T06:22:24.198Z,5.72
2023-05-21T06:24:51.987Z,6.03
2023-05-21T06:27:18.560Z,6.68
2023-05-21T06:29:45.185Z,6.20
2023-05-21T06:32:11.710Z,5.75
2023-05-21T06:34:38.337Z,5.32
2023-05-21T06:37:05.125Z,5.27
2023-05-21T06:39:31.742Z,5.63
2023-05-21T06:41:58.264Z,5.55
2023-05-21T06:44:25.074Z,5.55
2023-05-21T06:46:51.820Z,5.45
2023-05-21T06:49:18.410Z,5.23
2023-05-21T06:51:45.044Z,6.07
2023-05-21T06:54:13.189Z,5.10
2023-05-21T06:56:40.656Z,5.13
2023-05-21T06:59:07.566Z,4.90
2023-05-21T07:01:34.651Z,5.33
2023-05-21T07:04:01.271Z,4.85
2023-05-21T07:06:27.816Z,5.22
2023-05-21T07:08:54.457Z,4.70
2023-05-21T07:11:21.606Z,4.63
2023-05-21T07:13:48.442Z,4.70
2023-05-21T07:16:16.691Z,4.63
2023-05-21T07:18:43.294Z,4.53
2023-05-21T07:21:10.050Z,4.95
2023-05-21T07:23:36.593Z,5.22
2023-05-21T07:26:03.287Z,5.27
2023-05-21T07:28:29.993Z,4.68
2023-05-21T07:30:56.568Z,5.15
2023-05-21T07:33:23.122Z,4.93
2023-05-21T07:35:49.754Z,5.05
2023-05-21T07:38:17.721Z,4.87
2023-05-21T07:40:44.387Z,5.25
2023-05-21T07:43:11.021Z,4.72
2023-05-21T07:45:37.980Z,4.78
2023-05-21T07:48:05.220Z,5.43
2023-05-21T07:50:32.041Z,5.20
2023-05-21T07:52:58.822Z,4.55
2023-05-21T07:55:25.561Z,5.43
2023-05-21T07:57:55.313Z,5.22
2023-05-21T08:00:24.250Z,4.65
2023-05-21T08:02:52.385Z,4.53
2023-05-21T08:05:19.778Z,4.78
2023-05-21T08:07:46.843Z,5.13
2023-05-21T08:10:13.532Z,5.82
2023-05-21T08:12:40.283Z,4.78
2023-05-21T08:15:07.704Z,4.50
2023-05-21T08:17:34.354Z,4.82
2023-05-21T08:20:01.139Z,5.20
2023-05-21T08:22:27.720Z,4.28
2023-05-21T08:24:54.308Z,4.78
2023-05-21T08:27:21.338Z,4.37
2023-05-21T08:29:48.123Z,5.32
2023-05-21T08:32:14.827Z,5.30
2023-05-21T08:34:41.552Z,4.95
2023-05-21T08:37:08.285Z,5.20
2023-05-21T08:39:34.903Z,4.67
2023-05-21T08:42:32.768Z,4.80
2023-05-21T08:45:06.389Z,5.05
2023-05-21T08:47:36.105Z,4.70
2023-05-21T08:50:05.133Z,5.45
2023-05-21T08:52:32.545Z,4.47
2023-05-21T08:55:00.263Z,4.65
2023-05-21T08:57:27.687Z,5.32
2023-05-21T08:59:54.886Z,5.40
2023-05-21T09:02:21.804Z,5.63
2023-05-21T09:04:50.283Z,4.80
2023-05-21T09:07:17.286Z,5.22
2023-05-21T09:09:56.425Z,4.85
2023-05-21T09:12:25.539Z,4.70
2023-05-21T09:14:53.226Z,4.32
2023-05-21T09:17:20.487Z,5.30
2023-05-21T09:20:17.868Z,5.40
2023-05-21T09:22:48.368Z,4.85
2023-05-21T09:25:28.085Z,5.25
2023-05-21T09:27:58.712Z,5.65
2023-05-21T09:30:34.120Z,5.00
2023-05-21T09:33:03.423Z,5.38
2023-05-21T09:35:30.226Z,5.88
2023-05-21T09:37:57.644Z,5.15
2023-05-21T09:40:24.700Z,5.85
2023-05-21T09:42:53.044Z,5.50
2023-05-21T09:45:21.369Z,5.03
2023-05-21T09:47:49.673Z,5.80
2023-05-21T09:50:24.746Z,6.57
2023-05-21T09:52:53.085Z,5.38
2023-05-21T09:55:23.145Z,5.67
2023-05-21T09:57:51.042Z,5.88
2023-05-21T10:00:21.368Z,5.43
2023-05-21T10:02:49.420Z,5.18
2023-05-21T10:05:17.295Z,6.03
2023-05-21T10:07:51.386Z,5.00
2023-05-21T10:10:21.995Z,5.25
2023-05-21T10:12:55.235Z,6.07
2023-05-21T10:15:24.759Z,6.28
2023-05-21T10:17:52.476Z,6.10
2023-05-21T10:20:20.006Z,5.93
2023-05-21T10:22:47.437Z,5.63
2023-05-21T10:25:14.160Z,5.85
2023-05-21T10:27:42.065Z,5.75
2023-05-21T10:30:10.073Z,6.40
2023-05-21T10:32:40.352Z,5.90
2023-05-21T10:35:08.921Z,5.75
2023-05-21T10:37:35.740Z,6.00
2023-05-21T10:40:03.351Z,6.20
2023-05-21T10:42:29.835Z,6.50
2023-05-21T10:45:16.716Z,5.57
2023-05-21T10:48:11.999Z,5.28
2023-05-21T10:51:01.870Z,5.28
2023-05-21T10:53:51.062Z,5.22
2023-05-21T10:56:31.276Z,5.72
2023-05-21T10:59:04.213Z,5.87
2023-05-21T11:01:35.845Z,5.28
2023-05-21T11:04:03.843Z,5.07
2023-05-21T11:06:31.156Z,5.53
2023-05-21T11:09:02.292Z,5.97
2023-05-21T11:11:51.753Z,5.40
2023-05-21T11:14:32.529Z,5.18
2023-05-21T11:17:00.426Z,5.40
2023-05-21T11:19:47.566Z,5.13
2023-05-21T11:22:25.528Z,6.00
2023-05-21T11:24:54.716Z,5.13
2023-05-21T11:27:40.953Z,5.10
2023-05-21T11:30:09.659Z,4.82
2023-05-21T11:32:41.023Z,4.80
2023-05-21T11:35:08.312Z,4.40
2023-05-21T11:37:37.851Z,4.57
2023-05-21T11:40:20.369Z,4.53
2023-05-21T11:42:52.813Z,4.32
2023-05-21T11:45:21.191Z,4.50
2023-05-21T11:47:49.467Z,4.50
2023-05-21T11:50:17.156Z,4.20
2023-05-21T11:52:45.265Z,4.30
2023-05-21T11:55:12.616Z,4.78
2023-05-21T11:57:42.956Z,3.63
2023-05-21T12:00:15.348Z,3.83
2023-05-21T12:02:50.040Z,4.05
2023-05-21T12:05:17.132Z,4.30
2023-05-21T12:07:48.892Z,4.03
2023-05-21T12:10:15.869Z,4.03
2023-05-21T12:12:54.021Z,4.43
2023-05-21T12:15:22.844Z,4.68
2023-05-21T12:17:50.194Z,3.78
2023-05-21T12:20:17.354Z,4.35
2023-05-21T12:22:44.924Z,4.30
2023-05-21T12:25:12.167Z,4.22
2023-05-21T12:27:39.432Z,4.32
2023-05-21T12:30:07.023Z,3.90
2023-05-21T12:32:33.711Z,3.90
2023-05-21T12:35:00.398Z,4.50
2023-05-21T12:37:31.363Z,3.85
2023-05-21T12:40:07.770Z,3.47
2023-05-21T12:42:37.429Z,4.05
2023-05-21T12:45:08.827Z,4.15
2023-05-21T12:47:36.321Z,4.40
2023-05-21T12:50:11.856Z,4.20
2023-05-21T12:52:40.385Z,4.18
2023-05-21T12:55:09.478Z,3.67
2023-05-21T12:57:39.358Z,4.80
2023-05-21T13:00:07.626Z,3.90
2023-05-21T13:02:39.414Z,4.20
2023-05-21T13:05:08.210Z,3.67
2023-05-21T13:07:36.564Z,4.10
2023-05-21T13:10:04.356Z,3.67
2023-05-21T13:12:33.112Z,3.73
2023-05-21T13:15:01.686Z,4.35
2023-05-21T13:17:28.905Z,4.43
2023-05-21T13:20:09.536Z,3.83
2023-05-21T13:22:43.904Z,4.25
2023-05-21T13:25:11.837Z,3.63
2023-05-21T13:27:39.688Z,4.03
2023-05-21T13:30:07.358Z,3.60
2023-05-21T13:32:34.348Z,3.70
2023-05-21T13:35:01.178Z,3.80
2023-05-21T13:37:28.124Z,3.50
2023-05-21T13:39:54.831Z,3.72
2023-05-21T13:42:21.503Z,3.80
2023-05-21T13:44:48.748Z,3.80
2023-05-21T13:47:16.203Z,3.67
2023-05-21T13:49:42.976Z,3.97
2023-05-21T13:52:10.325Z,3.80
2023-05-21T13:54:36.992Z,4.15
2023-05-21T13:57:04.175Z,3.58
2023-05-21T13:59:33.240Z,4.40
2023-05-21T14:02:00.961Z,3.70
2023-05-21T14:04:27.763Z,4.97
2023-05-21T14:06:54.435Z,3.40
2023-05-21T14:09:21.622Z,4.15
2023-05-21T14:11:48.285Z,4.10
2023-05-21T14:14:18.948Z,3.80
2023-05-21T14:16:47.386Z,4.38
2023-05-21T14:19:14.247Z,4.20
2023-05-21T14:21:41.270Z,3.85
2023-05-21T14:24:08.005Z,4.45
2023-05-21T14:26:36.935Z,3.90
2023-05-21T14:29:03.725Z,3.88
2023-05-21T14:31:30.277Z,4.35
2023-05-21T14:33:56.824Z,3.47
2023-05-21T14:36:23.342Z,4.03
2023-05-21T14:38:50.115Z,3.47
2023-05-21T14:41:17.030Z,3.70
2023-05-21T14:43:43.749Z,4.93
2023-05-21T14:46:10.679Z,4.00
2023-05-21T14:48:38.418Z,3.63
2023-05-21T14:51:05.148Z,3.50
2023-05-21T14:53:32.349Z,3.75
2023-05-21T14:55:59.225Z,3.72
2023-05-21T14:58:26.525Z,4.20
2023-05-21T15:00:53.099Z,3.75
2023-05-21T15:03:19.796Z,3.83
2023-05-21T15:05:46.441Z,3.75
2023-05-21T15:08:12.947Z,3.60
2023-05-21T15:10:39.766Z,3.25
2023-05-21T15:13:06.328Z,3.28
2023-05-21T15:15:32.930Z,3.47
2023-05-21T15:17:59.720Z,3.58
2023-05-21T15:20:26.389Z,3.80
2023-05-21T15:23:02.005Z,3.38
2023-05-21T15:25:39.381Z,3.78
2023-05-21T15:28:06.010Z,3.17
2023-05-21T15:30:32.711Z,3.03
2023-05-21T15:32:59.246Z,3.70
2023-05-21T15:35:26.016Z,3.42
2023-05-21T15:37:52.638Z,3.53
2023-05-21T15:40:19.257Z,3.30
2023-05-21T15:42:45.912Z,3.28
2023-05-21T15:45:12.652Z,3.60
2023-05-21T15:47:42.698Z,3.40
2023-05-21T15:50:10.758Z,4.35
2023-05-21T15:52:37.337Z,3.73
2023-05-21T15:55:04.126Z,3.47
2023-05-21T15:57:31.464Z,3.88
2023-05-21T15:59:58.270Z,3.63
2023-05-21T16:02:25.044Z,3.22
2023-05-21T16:04:52.258Z,3.90
2023-05-21T16:07:19.141Z,3.03
2023-05-21T16:09:45.713Z,3.55
2023-05-21T16:12:13.308Z,3.60
2023-05-21T16:14:39.966Z,3.40
2023-05-21T16:17:06.710Z,3.20
2023-05-21T16:19:33.457Z,3.40
2023-05-21T16:22:00.896Z,3.65
2023-05-21T16:24:27.497Z,3.67
2023-05-21T16:26:54.340Z,3.28
2023-05-21T16:29:22.038Z,3.50
2023-05-21T16:31:48.893Z,3.70
2023-05-21T16:34:15.815Z,2.75
2023-05-21T16:36:42.624Z,3.15
2023-05-21T16:39:10.432Z,2.97
2023-05-21T16:41:37.030Z,3.63
2023-05-21T16:44:03.626Z,3.60
2023-05-21T16:46:30.238Z,2.75
2023-05-21T16:48:56.878Z,3.17
2023-05-21T16:51:23.465Z,3.60
2023-05-21T16:53:50.050Z,3.80
2023-05-21T16:56:16.782Z,3.45
2023-05-21T16:58:43.444Z,2.53
2023-05-21T17:01:10.056Z,2.97
2023-05-21T17:03:36.891Z,3.30
2023-05-21T17:06:03.614Z,3.00
2023-05-21T17:08:30.367Z,2.75
2023-05-21T17:10:57.128Z,2.80
2023-05-21T17:13:23.867Z,2.97
2023-05-21T17:15:53.478Z,3.63
2023-05-21T17:18:20.208Z,3.20
2023-05-21T17:20:46.765Z,3.13
2023-05-21T17:23:13.508Z,2.95
2023-05-21T17:25:40.959Z,3.08
2023-05-21T17:28:07.915Z,2.95
2023-05-21T17:30:34.545Z,3.23
2023-05-21T17:33:03.758Z,3.05
2023-05-21T17:35:30.897Z,3.10
2023-05-21T17:37:57.507Z,3.20
2023-05-21T17:40:24.735Z,3.00
2023-05-21T17:42:52.823Z,3.27
2023-05-21T17:45:19.801Z,2.88
2023-05-21T17:47:46.557Z,3.05
2023-05-21T17:50:13.343Z,2.53
2023-05-21T17:52:40.085Z,2.97
2023-05-21T17:55:08.052Z,3.00
2023-05-21T17:57:35.940Z,2.85
2023-05-21T18:00:05.142Z,2.60
2023-05-21T18:02:31.828Z,3.15
2023-05-21T18:04:58.769Z,2.55
2023-05-21T18:07:25.674Z,3.23
2023-05-21T18:09:52.399Z,2.88
2023-05-21T18:12:19.258Z,2.80
2023-05-21T18:14:46.326Z,3.22
2023-05-21T18:17:13.434Z,2.83
2023-05-21T18:19:40.207Z,3.70
2023-05-21T18:22:07.075Z,2.60
2023-05-21T18:24:33.888Z,2.80
2023-05-21T18:27:00.710Z,3.28
2023-05-21T18:29:27.690Z,3.03
2023-05-21T18:31:54.536Z,3.00
2023-05-21T18:34:21.338Z,2.60
2023-05-21T18:36:48.256Z,2.65
2023-05-21T18:39:15.284Z,2.85
2023-05-21T18:41:42.000Z,2.83
2023-05-21T18:44:08.995Z,2.60
2023-05-21T18:46:36.208Z,2.73
2023-05-21T18:49:02.889Z,2.90
2023-05-21T18:51:31.639Z,3.70
2023-05-21T18:53:58.728Z,3.03
2023-05-21T18:56:26.159Z,2.88
2023-05-21T18:58:52.780Z,3.20
2023-05-21T19:01:19.447Z,3.25
2023-05-21T19:03:46.614Z,3.10
2023-05-21T19:06:13.456Z,2.63
2023-05-21T19:08:41.268Z,3.03
2023-05-21T19:11:08.271Z,2.90
2023-05-21T19:13:34.953Z,3.47
2023-05-21T19:16:02.473Z,3.30
2023-05-21T19:18:32.600Z,3.30
2023-05-21T19:21:00.534Z,3.25
2023-05-21T19:23:27.361Z,3.47
2023-05-21T19:25:54.123Z,3.65
2023-05-21T19:28:20.801Z,3.50
2023-05-21T19:30:47.612Z,3.17
2023-05-21T19:33:14.548Z,3.70
2023-05-21T19:35:43.663Z,3.83
2023-05-21T19:38:10.967Z,3.33
2023-05-21T19:40:38.094Z,3.70
2023-05-21T19:43:05.183Z,3.30
2023-05-21T19:45:31.973Z,3.53
2023-05-21T19:47:59.839Z,4.27
2023-05-21T19:50:28.672Z,3.78
2023-05-21T19:52:57.168Z,4.68
2023-05-21T19:55:24.875Z,3.58
2023-05-21T19:57:51.891Z,3.90
2023-05-21T20:00:19.076Z,4.37
2023-05-21T20:02:46.341Z,3.90
2023-05-21T20:05:13.044Z,3.50
2023-05-21T20:07:40.226Z,3.85
2023-05-21T20:10:08.936Z,3.75
2023-05-21T20:12:35.822Z,4.80
2023-05-21T20:15:03.414Z,3.67
2023-05-21T20:17:30.557Z,4.68
2023-05-21T20:19:59.047Z,4.15
2023-05-21T20:22:25.792Z,4.20
2023-05-21T20:24:53.052Z,4.07
2023-05-21T20:27:20.123Z,4.85
2023-05-21T20:29:46.862Z,4.32
2023-05-21T20:32:13.587Z,4.00
2023-05-21T20:34:58.279Z,4.50
2023-05-21T20:37:26.343Z,4.37
2023-05-21T20:39:57.941Z,4.38
2023-05-21T20:42:46.005Z,4.63
2023-05-21T20:45:16.343Z,4.40
2023-05-21T20:47:43.745Z,4.53
2023-05-21T20:50:12.114Z,4.17
2023-05-21T20:52:38.796Z,4.22
2023-05-21T20:55:05.813Z,5.22
2023-05-21T20:57:32.806Z,5.78
2023-05-21T20:59:59.425Z,5.45
2023-05-21T21:02:27.075Z,4.70
2023-05-21T21:04:53.862Z,4.57
2023-05-21T21:07:20.633Z,4.53
2023-05-21T21:09:48.802Z,5.22
2023-05-21T21:12:25.878Z,5.10
2023-05-21T21:14:55.499Z,5.33
2023-05-21T21:17:22.344Z,5.93
2023-05-21T21:19:49.400Z,7.13
2023-05-21T21:22:16.433Z,6.25
2023-05-21T21:24:43.027Z,6.10
2023-05-21T21:27:09.657Z,5.93
2023-05-21T21:29:36.325Z,6.10
2023-05-21T21:32:02.998Z,6.18
2023-05-21T21:34:29.576Z,5.95
2023-05-21T21:36:56.203Z,5.65
2023-05-21T21:39:23.190Z,5.97
2023-05-21T21:41:50.051Z,5.63
2023-05-21T21:44:16.677Z,5.05
2023-05-21T21:46:43.267Z,5.25
2023-05-21T21:49:09.852Z,5.90
2023-05-21T21:51:37.011Z,4.87
2023-05-21T21:54:04.115Z,5.22
2023-05-21T21:56:30.755Z,5.75
2023-05-21T21:58:57.351Z,5.35
2023-05-21T22:01:24.109Z,5.45
2023-05-21T22:03:50.794Z,5.47
2023-05-21T22:06:17.359Z,4.85
2023-05-21T22:08:44.231Z,5.72
2023-05-21T22:11:11.056Z,5.93
2023-05-21T22:13:38.471Z,5.57
2023-05-21T22:16:05.476Z,5.60
2023-05-21T22:18:41.013Z,5.20
2023-05-21T22:21:09.936Z,6.00
2023-05-21T22:23:37.632Z,5.60
2023-05-21T22:26:04.461Z,5.45
2023-05-21T22:28:31.137Z,5.13
2023-05-21T22:30:58.702Z,5.60
2023-05-21T22:33:26.743Z,5.50
2023-05-21T22:35:54.233Z,6.47
2023-05-21T22:38:20.925Z,6.30
2023-05-21T22:40:47.569Z,5.50
2023-05-21T22:43:14.345Z,5.72
2023-05-21T22:45:40.965Z,6.13
2023-05-21T22:48:09.040Z,5.93
2023-05-21T22:50:36.174Z,5.85
2023-05-21T22:53:03.084Z,6.23
2023-05-21T22:55:29.905Z,6.93
2023-05-21T22:57:56.653Z,6.85
2023-05-21T23:00:23.743Z,6.82
2023-05-21T23:02:53.843Z,7.53
2023-05-21T23:05:21.067Z,8.07
2023-05-21T23:07:47.663Z,8.98
2023-05-21T23:10:14.525Z,9.07
2023-05-21T23:12:41.782Z,7.22
2023-05-21T23:15:10.263Z,7.68
2023-05-21T23:17:37.887Z,8.20
2023-05-21T23:20:06.152Z,7.97
2023-05-21T23:22:33.034Z,8.75
2023-05-21T23:24:59.767Z,7.38
2023-05-21T23:27:26.433Z,7.80
2023-05-21T23:29:53.043Z,8.70
2023-05-21T23:32:19.668Z,8.10
2023-05-21T23:34:46.370Z,7.30
2023-05-21T23:37:12.931Z,7.97
2023-05-21T23:39:41.280Z,7.63
2023-05-21T23:42:07.921Z,7.73
2023-05-21T23:44:34.478Z,7.60
2023-05-21T23:47:01.271Z,6.78
2023-05-21T23:49:27.816Z,7.97
2023-05-21T23:51:54.640Z,8.05
2023-05-21T23:54:21.246Z,6.90
2023-05-21T23:56:47.789Z,7.05
2023-05-21T23:59:16.253Z,7.00
